Time;durP1;ratioP1;P1;durP2;ratioP2;P2;SDS_P1;SDS_P2;PMS_P1;PMS_P2;Temp;Humidity;BMP_temperature;BMP_pressure;BME280_temperature;BME280_humidity;BME280_pressure;Samples;Min_cycle;Max_cycle;Signal;HPM_P1;HPM_P2
2022/05/25 00:02:21;;;;;;;2.70;1.50;;;22.50;52.70;;;;;;5121710;28;20450;-82
2022/05/25 00:04:49;;;;;;;2.30;1.27;;;22.50;52.70;;;;;;5126110;28;20523;-82
2022/05/25 00:07:17;;;;;;;1.30;1.20;;;22.40;52.70;;;;;;5126756;28;20531;-83
2022/05/25 00:09:46;;;;;;;1.10;1.03;;;22.40;52.80;;;;;;5126652;28;20442;-82
2022/05/25 00:12:15;;;;;;;1.57;1.33;;;22.40;52.80;;;;;;5127255;28;20419;-83
2022/05/25 00:14:44;;;;;;;2.10;1.30;;;22.40;52.90;;;;;;5126497;28;20445;-83
2022/05/25 00:17:12;;;;;;;1.40;1.30;;;22.30;52.90;;;;;;5122309;28;20536;-82
2022/05/25 00:22:26;;;;;;;1.53;1.40;;;22.20;52.90;;;;;;5126799;28;20448;-82
2022/05/25 00:24:56;;;;;;;1.30;1.20;;;22.10;52.90;;;;;;5126320;28;20511;-83
2022/05/25 00:27:24;;;;;;;1.43;1.30;;;22.10;53.00;;;;;;5127104;28;20449;-83
2022/05/25 00:29:53;;;;;;;2.30;1.30;;;22.10;53.10;;;;;;5127314;28;20421;-83
2022/05/25 00:32:22;;;;;;;1.20;1.20;;;22.00;53.00;;;;;;5126305;28;20446;-83
2022/05/25 00:34:50;;;;;;;2.30;1.30;;;22.00;53.00;;;;;;5108700;28;20419;-82
2022/05/25 00:37:18;;;;;;;3.10;1.33;;;22.00;53.00;;;;;;5122593;28;20407;-82
2022/05/25 00:39:46;;;;;;;2.00;1.20;;;21.90;53.00;;;;;;5126621;28;20438;-83
2022/05/25 00:42:16;;;;;;;1.47;1.10;;;21.90;53.00;;;;;;5126754;28;20410;-82
2022/05/25 00:44:44;;;;;;;4.03;1.27;;;21.90;53.00;;;;;;5126546;28;20992;-82
2022/05/25 00:47:13;;;;;;;1.37;1.30;;;21.80;53.00;;;;;;5126191;28;20512;-82
2022/05/25 00:49:41;;;;;;;1.50;1.30;;;21.80;53.10;;;;;;5126796;28;20440;-83
2022/05/25 00:52:11;;;;;;;2.20;1.17;;;21.80;53.10;;;;;;5115135;28;20451;-82
2022/05/25 00:54:42;;;;;;;2.80;1.10;;;21.80;53.20;;;;;;5124322;28;20462;-83
2022/05/25 00:57:12;;;;;;;1.53;1.20;;;21.80;53.00;;;;;;5126467;28;20443;-83
2022/05/25 00:59:44;;;;;;;2.73;1.10;;;21.80;53.00;;;;;;5126434;28;20435;-83
2022/05/25 01:06:06;;;;;;;4.60;1.07;;;21.70;53.00;;;;;;5106964;28;20406;-82
2022/05/25 01:08:38;;;;;;;1.10;1.00;;;21.60;53.10;;;;;;5121071;28;20484;-83
2022/05/25 01:11:15;;;;;;;2.70;1.10;;;21.60;53.20;;;;;;5106416;28;20499;-82
2022/05/25 01:13:47;;;;;;;2.50;1.17;;;21.60;53.10;;;;;;5106213;28;20408;-83
2022/05/25 01:16:20;;;;;;;1.30;1.20;;;21.60;53.30;;;;;;5105450;28;20423;-83
2022/05/25 01:18:49;;;;;;;1.30;1.20;;;21.50;53.20;;;;;;5105879;28;20419;-83
2022/05/25 01:21:22;;;;;;;1.17;1.07;;;21.50;53.20;;;;;;5105091;28;20462;-83
2022/05/25 01:24:03;;;;;;;1.30;1.20;;;21.40;53.20;;;;;;5105286;28;20478;-82
2022/05/25 01:26:44;;;;;;;2.30;1.23;;;21.40;53.30;;;;;;5113957;28;20523;-82
2022/05/25 01:29:45;;;;;;;2.70;1.30;;;21.40;53.30;;;;;;5105601;28;20439;-82
2022/05/25 01:32:17;;;;;;;1.33;1.23;;;21.40;53.20;;;;;;5094937;28;20490;-82
2022/05/25 01:34:48;;;;;;;2.03;1.00;;;21.30;53.20;;;;;;5105368;28;20446;-83
2022/05/25 01:37:17;;;;;;;2.20;1.00;;;21.30;53.20;;;;;;5104582;28;20472;-82
2022/05/25 01:39:49;;;;;;;1.30;1.20;;;21.30;53.10;;;;;;5105129;28;20494;-83
2022/05/25 01:42:19;;;;;;;2.70;1.20;;;21.30;53.20;;;;;;5106416;27;20478;-82
2022/05/25 01:44:51;;;;;;;1.37;1.20;;;21.30;53.20;;;;;;5117012;28;20460;-83
2022/05/25 01:47:20;;;;;;;1.07;1.07;;;21.20;53.20;;;;;;5125160;28;20481;-82
2022/05/25 01:49:50;;;;;;;1.10;1.10;;;21.20;53.10;;;;;;5125668;28;20458;-83
2022/05/25 01:52:20;;;;;;;1.97;1.40;;;21.20;53.20;;;;;;5126490;28;20444;-82
2022/05/25 01:54:51;;;;;;;2.30;1.30;;;21.10;53.20;;;;;;5126004;28;20456;-82
2022/05/25 01:57:21;;;;;;;1.40;1.30;;;21.10;53.10;;;;;;5126354;28;20498;-83
2022/05/25 01:59:49;;;;;;;1.00;1.00;;;21.10;53.20;;;;;;5124676;28;20426;-82
2022/05/25 02:05:08;;;;;;;1.10;1.10;;;21.10;53.20;;;;;;5105089;28;20482;-83
2022/05/25 02:07:51;;;;;;;3.23;1.30;;;21.00;53.20;;;;;;5105233;28;20475;-82
2022/05/25 02:10:32;;;;;;;0.83;0.80;;;21.00;53.10;;;;;;5104958;28;20463;-82
2022/05/25 02:13:10;;;;;;;1.13;1.03;;;21.00;53.10;;;;;;5104837;28;20475;-83
2022/05/25 02:15:43;;;;;;;0.90;0.90;;;21.00;53.20;;;;;;5105322;28;20531;-82
2022/05/25 02:18:18;;;;;;;1.27;1.27;;;21.00;53.20;;;;;;5104301;28;20447;-82
2022/05/25 02:20:48;;;;;;;2.07;1.20;;;20.90;53.00;;;;;;5120898;28;20447;-82
2022/05/25 02:23:19;;;;;;;2.83;1.10;;;20.90;53.20;;;;;;5124955;28;20991;-83
2022/05/25 02:25:49;;;;;;;3.07;1.00;;;20.90;53.20;;;;;;5125540;28;20494;-84
2022/05/25 02:28:19;;;;;;;2.40;1.30;;;20.90;53.20;;;;;;5123263;28;20559;-84
2022/05/25 02:30:49;;;;;;;6.50;1.00;;;20.80;53.10;;;;;;5115667;28;20468;-85
2022/05/25 02:33:22;;;;;;;1.37;1.27;;;20.80;53.30;;;;;;5113483;28;20535;-85
2022/05/25 02:35:50;;;;;;;1.07;1.07;;;20.80;53.20;;;;;;5108367;28;20458;-85
2022/05/25 02:38:18;;;;;;;3.33;1.30;;;20.80;53.10;;;;;;5093998;28;20415;-85
2022/05/25 02:40:46;;;;;;;3.53;1.20;;;20.80;53.20;;;;;;5088516;28;20531;-85
2022/05/25 02:43:15;;;;;;;1.83;1.00;;;20.70;53.20;;;;;;5093530;28;20551;-85
2022/05/25 02:45:43;;;;;;;1.37;1.27;;;20.70;53.20;;;;;;5092475;28;20974;-85
2022/05/25 02:48:11;;;;;;;2.10;1.10;;;20.70;53.10;;;;;;5092602;28;20532;-85
2022/05/25 02:50:41;;;;;;;1.23;1.13;;;20.70;53.10;;;;;;5092370;28;20439;-85
2022/05/25 02:53:11;;;;;;;1.20;1.20;;;20.70;53.10;;;;;;5099615;28;20493;-84
2022/05/25 02:55:39;;;;;;;1.03;0.90;;;20.60;53.20;;;;;;5116973;28;20465;-84
2022/05/25 02:58:07;;;;;;;1.10;1.10;;;20.60;53.20;;;;;;5117089;28;20476;-84
2022/05/25 03:00:36;;;;;;;1.03;1.03;;;20.60;53.20;;;;;;5116918;28;20495;-84
2022/05/25 03:03:05;;;;;;;1.47;1.30;;;20.60;53.10;;;;;;5116570;28;20422;-84
2022/05/25 03:05:33;;;;;;;1.30;1.20;;;20.60;53.10;;;;;;5116708;28;20418;-84
2022/05/25 03:08:04;;;;;;;1.23;1.20;;;20.60;53.10;;;;;;5116480;28;20498;-84
2022/05/25 03:10:32;;;;;;;1.50;1.40;;;20.50;53.00;;;;;;5107022;28;20499;-84
2022/05/25 03:13:01;;;;;;;1.43;1.33;;;20.60;53.10;;;;;;5118121;28;20447;-85
2022/05/25 03:15:30;;;;;;;1.63;1.20;;;20.50;53.00;;;;;;5117466;28;20447;-85
2022/05/25 03:17:57;;;;;;;1.90;1.27;;;20.50;53.00;;;;;;5116632;28;20436;-85
2022/05/25 03:20:25;;;;;;;1.23;1.17;;;20.50;53.10;;;;;;5116527;28;20459;-85
2022/05/25 03:22:53;;;;;;;1.97;1.30;;;20.50;53.00;;;;;;5116138;28;20471;-85
2022/05/25 03:25:22;;;;;;;1.23;1.13;;;20.50;53.10;;;;;;5114858;28;20513;-84
2022/05/25 03:27:50;;;;;;;1.30;1.20;;;20.50;53.10;;;;;;5117316;28;20509;-84
2022/05/25 03:30:20;;;;;;;1.40;1.20;;;20.40;53.00;;;;;;5117279;28;20438;-84
2022/05/25 03:32:48;;;;;;;2.03;1.20;;;20.40;53.00;;;;;;5117771;28;20439;-84
2022/05/25 03:35:16;;;;;;;1.30;1.20;;;20.40;53.20;;;;;;5116489;28;20447;-84
2022/05/25 03:37:44;;;;;;;1.10;1.00;;;20.40;53.20;;;;;;5117059;28;20514;-84
2022/05/25 03:40:13;;;;;;;1.40;1.30;;;20.40;53.00;;;;;;5116735;28;20466;-85
2022/05/25 03:42:43;;;;;;;1.40;1.30;;;20.40;53.10;;;;;;5120316;28;20468;-85
2022/05/25 03:45:12;;;;;;;1.47;1.37;;;20.40;53.00;;;;;;5120441;27;20452;-85
2022/05/25 03:47:42;;;;;;;1.43;1.33;;;20.40;53.00;;;;;;5106833;28;20517;-85
2022/05/25 03:50:11;;;;;;;7.33;1.40;;;20.40;53.10;;;;;;5096199;28;20469;-85
2022/05/25 03:52:39;;;;;;;1.60;1.50;;;20.40;53.00;;;;;;5097279;28;20503;-86
2022/05/25 03:55:08;;;;;;;1.50;1.40;;;20.40;53.00;;;;;;5096585;28;20415;-86
2022/05/25 03:57:36;;;;;;;1.67;1.57;;;20.30;52.90;;;;;;5096481;28;20468;-86
2022/05/25 04:00:07;;;;;;;1.50;1.50;;;20.30;53.00;;;;;;5101787;28;20531;-84
2022/05/25 04:02:35;;;;;;;1.87;1.33;;;20.30;53.00;;;;;;5116173;28;20444;-84
2022/05/25 04:05:09;;;;;;;1.00;1.00;;;20.30;52.90;;;;;;5115551;28;20442;-85
2022/05/25 04:07:38;;;;;;;1.50;1.40;;;20.30;52.80;;;;;;5116401;28;20424;-84
2022/05/25 04:10:07;;;;;;;1.20;1.10;;;20.30;52.90;;;;;;5115749;28;20481;-85
2022/05/25 04:12:35;;;;;;;1.10;1.10;;;20.30;52.90;;;;;;5117057;28;20459;-85
2022/05/25 04:15:05;;;;;;;1.40;1.40;;;20.30;52.80;;;;;;5115888;28;20474;-85
2022/05/25 04:17:33;;;;;;;1.30;1.30;;;20.30;52.90;;;;;;5111893;28;20427;-84
2022/05/25 04:20:01;;;;;;;5.60;1.20;;;20.30;52.80;;;;;;5116156;28;20468;-85
2022/05/25 04:22:32;;;;;;;1.30;1.30;;;20.40;52.80;;;;;;5116583;28;20432;-85
2022/05/25 04:25:01;;;;;;;1.10;1.00;;;20.30;52.70;;;;;;5115944;28;20443;-84
2022/05/25 04:27:29;;;;;;;1.77;1.40;;;20.30;52.80;;;;;;5116601;28;20432;-84
2022/05/25 04:29:58;;;;;;;1.33;1.23;;;20.30;52.70;;;;;;5115638;28;20471;-85
2022/05/25 04:32:27;;;;;;;2.10;1.30;;;20.30;52.80;;;;;;5115612;28;20474;-84
2022/05/25 04:34:57;;;;;;;1.40;1.40;;;20.30;52.70;;;;;;5112045;28;20498;-84
2022/05/25 04:40:11;;;;;;;1.57;1.27;;;20.30;52.80;;;;;;5116542;28;20452;-85
2022/05/25 04:42:43;;;;;;;1.20;1.20;;;20.30;52.70;;;;;;5114772;28;20440;-85
2022/05/25 04:45:11;;;;;;;3.47;1.37;;;20.30;52.80;;;;;;5115260;28;20464;-84
2022/05/25 04:47:41;;;;;;;1.67;1.57;;;20.30;52.70;;;;;;5114856;28;20470;-85
2022/05/25 04:50:15;;;;;;;1.27;1.27;;;20.30;52.70;;;;;;5110437;27;20474;-84
2022/05/25 04:52:43;;;;;;;1.47;1.37;;;20.30;52.70;;;;;;5114984;28;20453;-85
2022/05/25 04:57:19;;;;;;;1.47;1.30;;;20.30;52.70;;;;;;5114737;28;20532;-85
2022/05/25 04:57:58;;;;;;;1.50;1.40;;;20.30;52.70;;;;;;5114904;28;20463;-84
2022/05/25 05:00:26;;;;;;;1.27;1.27;;;20.40;52.70;;;;;;5115129;28;20551;-84
2022/05/25 05:02:55;;;;;;;1.90;1.80;;;20.40;52.60;;;;;;5114817;28;20517;-84
2022/05/25 05:05:23;;;;;;;1.43;1.43;;;20.40;52.60;;;;;;5114877;28;20418;-84
2022/05/25 05:07:51;;;;;;;1.60;1.60;;;20.40;52.70;;;;;;5110140;28;20427;-84
2022/05/25 05:10:19;;;;;;;1.97;1.87;;;20.30;52.40;;;;;;5114367;28;20470;-85
2022/05/25 05:12:48;;;;;;;2.60;1.20;;;20.30;52.60;;;;;;5114980;28;20451;-85
2022/05/25 05:15:16;;;;;;;1.77;1.67;;;20.30;52.40;;;;;;5114714;28;20487;-84
2022/05/25 05:17:43;;;;;;;2.07;1.97;;;20.40;52.50;;;;;;5114613;28;20531;-84
2022/05/25 05:20:13;;;;;;;1.67;1.57;;;20.40;52.50;;;;;;5114264;28;20486;-84
2022/05/25 05:22:41;;;;;;;1.50;1.40;;;20.40;52.50;;;;;;5111100;28;20485;-84
2022/05/25 05:25:09;;;;;;;1.40;1.30;;;20.40;52.40;;;;;;5109767;28;20489;-84
2022/05/25 05:27:37;;;;;;;1.80;1.70;;;20.40;52.40;;;;;;5096553;28;20445;-84
2022/05/25 05:30:07;;;;;;;1.53;1.43;;;20.40;52.40;;;;;;5095385;28;20560;-84
2022/05/25 05:32:35;;;;;;;1.63;1.50;;;20.40;52.40;;;;;;5094650;28;20445;-84
2022/05/25 05:35:07;;;;;;;1.27;1.27;;;20.40;52.30;;;;;;5094124;28;20468;-84
2022/05/25 05:37:37;;;;;;;1.87;1.77;;;20.50;52.20;;;;;;5094006;28;20494;-84
2022/05/25 05:40:06;;;;;;;2.93;1.90;;;20.50;52.30;;;;;;5094245;28;20490;-84
2022/05/25 05:42:36;;;;;;;3.70;1.90;;;20.50;52.30;;;;;;5095789;28;20539;-84
2022/05/25 05:45:06;;;;;;;1.80;1.70;;;20.50;52.20;;;;;;5095220;28;20416;-84
2022/05/25 05:47:37;;;;;;;1.67;1.57;;;20.50;52.20;;;;;;5094481;28;20425;-84
2022/05/25 05:50:05;;;;;;;1.80;1.20;;;20.50;52.10;;;;;;5093913;28;20972;-84
2022/05/25 05:52:35;;;;;;;1.83;1.60;;;20.50;52.10;;;;;;5093458;28;20430;-84
2022/05/25 05:55:11;;;;;;;1.53;1.33;;;20.60;52.00;;;;;;5093846;28;20445;-85
2022/05/25 05:57:39;;;;;;;2.03;1.90;;;20.60;52.00;;;;;;5094099;28;20869;-84
2022/05/25 06:00:09;;;;;;;1.87;1.77;;;20.60;51.90;;;;;;5106058;28;20444;-84
2022/05/25 06:02:37;;;;;;;1.60;1.50;;;20.60;51.90;;;;;;5095001;28;20452;-84
2022/05/25 06:05:06;;;;;;;2.00;1.90;;;20.60;51.80;;;;;;5093872;28;20495;-84
2022/05/25 06:07:35;;;;;;;2.00;1.80;;;20.60;51.80;;;;;;5093171;28;20452;-84
2022/05/25 06:10:04;;;;;;;1.50;1.40;;;20.70;51.80;;;;;;5092476;28;20507;-84
2022/05/25 06:12:32;;;;;;;1.43;1.33;;;20.70;51.70;;;;;;5092932;28;20487;-84
2022/05/25 06:19:25;;;;;;;1.50;1.50;;;20.70;51.60;;;;;;5096586;28;20448;-84
2022/05/25 06:20:37;;;;;;;1.70;1.60;;;20.80;51.70;;;;;;5113230;28;20467;-84
2022/05/25 06:23:07;;;;;;;1.73;1.63;;;20.80;51.60;;;;;;5112842;28;20451;-85
2022/05/25 06:25:35;;;;;;;2.03;1.93;;;20.90;51.60;;;;;;5112834;28;20443;-85
2022/05/25 06:28:03;;;;;;;1.80;1.70;;;20.90;51.60;;;;;;5112821;28;20531;-84
2022/05/25 06:30:31;;;;;;;3.93;1.60;;;21.00;51.40;;;;;;5115339;28;21062;-85
2022/05/25 06:32:59;;;;;;;2.13;1.90;;;21.00;51.40;;;;;;5109975;28;20971;-84
2022/05/25 06:35:27;;;;;;;1.63;1.53;;;21.10;51.30;;;;;;5097190;28;20441;-85
2022/05/25 06:37:55;;;;;;;3.17;1.30;;;21.10;51.30;;;;;;5097887;28;20531;-84
2022/05/25 06:40:25;;;;;;;1.80;1.53;;;21.20;51.20;;;;;;5096633;28;20543;-84
2022/05/25 06:42:53;;;;;;;1.50;1.40;;;21.30;51.20;;;;;;5096817;28;20452;-85
2022/05/25 06:45:21;;;;;;;1.60;1.50;;;21.40;50.80;;;;;;5096747;28;20479;-85
2022/05/25 06:47:50;;;;;;;1.53;1.43;;;21.50;50.60;;;;;;5102057;28;20499;-84
2022/05/25 06:50:18;;;;;;;1.30;1.30;;;21.70;50.20;;;;;;5110631;28;20447;-84
2022/05/25 06:52:46;;;;;;;1.60;1.50;;;21.80;50.00;;;;;;5096520;28;20444;-84
2022/05/25 06:55:14;;;;;;;1.20;1.10;;;22.10;49.70;;;;;;5096140;28;20502;-85
2022/05/25 06:57:43;;;;;;;1.57;1.40;;;22.30;49.30;;;;;;5096166;28;20922;-84
2022/05/25 07:00:13;;;;;;;1.77;1.67;;;22.40;48.90;;;;;;5096501;28;20511;-84
2022/05/25 07:02:41;;;;;;;1.23;1.20;;;22.60;48.90;;;;;;5096257;28;20449;-85
2022/05/25 07:05:09;;;;;;;1.57;1.20;;;22.70;48.80;;;;;;5096419;28;20430;-84
2022/05/25 07:07:38;;;;;;;1.37;1.20;;;22.70;48.80;;;;;;5103465;27;20431;-85
2022/05/25 07:10:07;;;;;;;1.40;1.30;;;22.80;48.80;;;;;;5096355;28;20507;-85
2022/05/25 07:12:35;;;;;;;1.40;1.30;;;23.00;48.60;;;;;;5096151;28;20494;-85
2022/05/25 07:15:05;;;;;;;1.57;1.40;;;23.00;48.50;;;;;;5096185;28;20444;-85
2022/05/25 07:17:34;;;;;;;1.20;1.20;;;23.10;48.50;;;;;;5096306;28;20479;-85
2022/05/25 07:20:02;;;;;;;1.47;1.37;;;23.20;48.60;;;;;;5096001;28;20831;-85
2022/05/25 07:22:30;;;;;;;1.20;1.20;;;23.20;48.80;;;;;;5096048;28;20445;-85
2022/05/25 07:24:58;;;;;;;1.40;1.40;;;23.30;48.80;;;;;;5112479;28;20478;-85
2022/05/25 07:27:26;;;;;;;1.57;1.20;;;23.40;48.60;;;;;;5116337;28;20447;-84
2022/05/25 07:29:55;;;;;;;1.47;1.37;;;23.40;48.60;;;;;;5115958;28;20495;-85
2022/05/25 07:32:24;;;;;;;1.10;1.10;;;23.50;48.70;;;;;;5116307;28;20464;-85
2022/05/25 07:34:55;;;;;;;1.20;1.10;;;23.70;48.50;;;;;;5115989;28;20444;-85
2022/05/25 07:37:32;;;;;;;1.63;1.40;;;23.70;48.60;;;;;;5116287;28;20485;-84
2022/05/25 07:40:03;;;;;;;2.30;1.20;;;23.80;48.70;;;;;;5115351;28;20414;-84
2022/05/25 07:42:31;;;;;;;1.20;1.10;;;23.90;48.70;;;;;;5110330;28;20451;-84
2022/05/25 07:45:00;;;;;;;1.50;1.40;;;24.10;48.70;;;;;;5095547;28;20528;-84
2022/05/25 07:47:31;;;;;;;1.50;1.40;;;24.20;48.60;;;;;;5095810;28;20445;-84
2022/05/25 07:49:59;;;;;;;1.37;1.30;;;24.30;48.30;;;;;;5095570;28;20419;-85
2022/05/25 07:52:28;;;;;;;1.10;1.00;;;24.30;48.90;;;;;;5096447;28;20415;-84
2022/05/25 07:54:56;;;;;;;1.10;1.10;;;24.40;48.70;;;;;;5096117;28;20532;-84
2022/05/25 07:57:25;;;;;;;3.60;1.20;;;24.60;48.60;;;;;;5096308;28;20449;-85
2022/05/25 07:59:53;;;;;;;1.10;1.10;;;24.80;48.40;;;;;;5109201;28;20426;-85
2022/05/25 08:07:56;;;;;;;1.40;1.30;;;25.20;48.00;;;;;;5115738;28;20441;-85
2022/05/25 08:10:25;;;;;;;3.53;1.23;;;25.40;47.80;;;;;;5115707;28;20450;-85
2022/05/25 08:12:55;;;;;;;2.20;1.27;;;25.50;47.60;;;;;;5115921;28;20489;-85
2022/05/25 08:15:23;;;;;;;1.97;1.40;;;25.60;47.60;;;;;;5116353;28;20447;-85
2022/05/25 08:17:51;;;;;;;1.30;1.20;;;25.70;47.70;;;;;;5114052;28;20456;-84
2022/05/25 08:20:21;;;;;;;1.17;1.17;;;25.80;47.70;;;;;;5116321;28;20456;-84
2022/05/25 08:22:49;;;;;;;0.90;0.90;;;25.90;47.80;;;;;;5115900;28;20410;-85
2022/05/25 08:25:18;;;;;;;1.40;1.30;;;26.00;47.60;;;;;;5115023;28;20426;-85
2022/05/25 08:27:46;;;;;;;1.23;1.13;;;26.00;47.50;;;;;;5115465;28;20497;-85
2022/05/25 08:30:16;;;;;;;1.30;1.20;;;26.20;47.40;;;;;;5115513;28;20468;-84
2022/05/25 08:32:44;;;;;;;0.83;0.83;;;26.40;47.00;;;;;;5115300;28;20490;-85
2022/05/25 08:35:13;;;;;;;0.80;0.80;;;26.40;46.80;;;;;;5111882;28;20542;-85
2022/05/25 08:37:43;;;;;;;1.00;0.90;;;26.60;46.80;;;;;;5114639;28;20945;-85
2022/05/25 08:40:13;;;;;;;1.13;1.13;;;26.70;46.70;;;;;;5115221;28;20456;-85
2022/05/25 08:42:45;;;;;;;1.20;1.20;;;26.60;47.00;;;;;;5114849;28;20441;-85
2022/05/25 08:45:13;;;;;;;1.00;1.00;;;26.70;47.00;;;;;;5114825;28;20444;-85
2022/05/25 08:47:44;;;;;;;0.97;0.97;;;26.90;46.90;;;;;;5115935;28;20415;-85
2022/05/25 08:50:12;;;;;;;1.10;1.00;;;27.10;46.70;;;;;;5120643;28;20455;-84
2022/05/25 08:52:41;;;;;;;1.20;1.20;;;27.00;46.90;;;;;;5111538;28;20481;-84
2022/05/25 08:55:11;;;;;;;1.00;1.00;;;27.20;46.80;;;;;;5115173;28;20954;-84
2022/05/25 08:57:41;;;;;;;0.87;0.87;;;27.40;46.60;;;;;;5115184;28;20470;-84
2022/05/25 09:00:13;;;;;;;1.00;0.80;;;27.50;46.60;;;;;;5115235;28;20463;-84
2022/05/25 09:02:46;;;;;;;0.80;0.80;;;27.60;46.00;;;;;;5115427;28;20837;-85
2022/05/25 09:05:16;;;;;;;1.07;0.97;;;27.70;46.10;;;;;;5115400;28;20432;-84
2022/05/25 09:07:52;;;;;;;1.10;1.10;;;28.00;45.70;;;;;;5115830;28;20443;-84
2022/05/25 09:10:20;;;;;;;4.97;0.90;;;28.20;45.60;;;;;;5111270;28;20471;-84
2022/05/25 09:12:49;;;;;;;0.93;0.93;;;28.30;45.20;;;;;;5114418;28;20475;-84
2022/05/25 09:15:18;;;;;;;1.03;1.00;;;28.50;44.70;;;;;;5110800;28;20471;-84
2022/05/25 09:17:50;;;;;;;1.23;0.97;;;28.60;44.60;;;;;;5114775;28;20435;-84
2022/05/25 09:20:21;;;;;;;0.93;0.83;;;28.80;44.20;;;;;;5114857;28;20499;-84
2022/05/25 09:22:58;;;;;;;1.07;0.97;;;29.00;43.80;;;;;;5113955;28;20444;-85
2022/05/25 09:25:31;;;;;;;0.90;0.90;;;29.00;43.80;;;;;;5111201;28;20452;-84
2022/05/25 09:28:03;;;;;;;0.90;0.90;;;29.00;43.80;;;;;;5096243;28;20464;-85
2022/05/25 09:30:32;;;;;;;0.90;0.90;;;29.10;43.80;;;;;;5098527;28;20490;-83
2022/05/25 09:33:05;;;;;;;1.33;1.00;;;29.00;43.70;;;;;;5099117;28;20429;-84
2022/05/25 09:35:35;;;;;;;0.90;0.90;;;29.20;43.30;;;;;;5096372;28;20468;-83
2022/05/25 09:38:15;;;;;;;1.10;0.73;;;29.20;43.60;;;;;;5096137;28;20512;-83
2022/05/25 09:40:46;;;;;;;1.07;0.80;;;29.40;43.60;;;;;;5099903;28;20468;-83
2022/05/25 09:43:19;;;;;;;2.30;1.20;;;29.70;43.30;;;;;;5111038;28;20492;-82
2022/05/25 09:45:48;;;;;;;0.80;0.80;;;29.80;43.20;;;;;;5102079;28;20448;-82
2022/05/25 09:48:19;;;;;;;2.50;1.00;;;29.80;43.00;;;;;;5101408;28;20459;-82
2022/05/25 09:50:51;;;;;;;1.13;1.13;;;29.80;42.50;;;;;;5102204;28;20488;-83
2022/05/25 09:53:21;;;;;;;0.87;0.83;;;29.70;42.70;;;;;;5102545;28;20468;-82
2022/05/25 09:56:04;;;;;;;1.93;1.07;;;29.70;42.40;;;;;;5101764;28;20430;-82
2022/05/25 09:58:48;;;;;;;0.80;0.80;;;29.70;42.20;;;;;;5104676;28;20474;-83
2022/05/25 10:01:20;;;;;;;1.27;1.00;;;30.00;42.10;;;;;;5116028;28;20486;-82
2022/05/25 10:03:49;;;;;;;1.00;0.90;;;30.10;41.80;;;;;;5117450;28;20464;-81
2022/05/25 10:06:20;;;;;;;0.90;0.90;;;30.20;41.70;;;;;;5117039;28;20443;-82
2022/05/25 10:08:53;;;;;;;0.90;0.80;;;30.20;41.60;;;;;;5104654;28;20444;-82
2022/05/25 10:11:33;;;;;;;0.90;0.90;;;30.40;41.60;;;;;;5120090;28;20510;-81
2022/05/25 10:14:16;;;;;;;0.97;0.80;;;30.50;41.20;;;;;;5122827;28;20448;-84
2022/05/25 10:16:44;;;;;;;1.93;0.90;;;30.50;41.30;;;;;;5124281;28;20939;-84
2022/05/25 10:19:13;;;;;;;1.33;0.80;;;30.60;41.00;;;;;;5124579;28;20446;-84
2022/05/25 10:21:47;;;;;;;0.80;0.80;;;30.60;40.70;;;;;;5118732;28;20474;-82
2022/05/25 10:24:17;;;;;;;0.83;0.83;;;30.70;40.60;;;;;;5119987;28;20509;-81
2022/05/25 10:26:46;;;;;;;0.83;0.80;;;30.80;40.60;;;;;;5120365;28;20468;-84
2022/05/25 10:36:45;;;;;;;0.80;0.80;;;31.00;40.20;;;;;;5121675;28;20471;-83
2022/05/25 10:37:55;;;;;;;0.80;0.80;;;31.10;39.80;;;;;;5114592;28;20508;-83
2022/05/25 10:40:27;;;;;;;0.90;0.90;;;31.00;39.90;;;;;;5113916;28;20479;-82
2022/05/25 10:42:59;;;;;;;0.87;0.80;;;31.00;39.90;;;;;;5099286;28;20469;-82
2022/05/25 10:45:33;;;;;;;0.80;0.80;;;30.90;40.20;;;;;;5101168;28;20445;-82
2022/05/25 10:48:07;;;;;;;0.83;0.80;;;31.00;39.80;;;;;;5101135;28;20493;-83
2022/05/25 10:50:38;;;;;;;1.03;0.80;;;31.10;39.60;;;;;;5101831;28;20531;-83
2022/05/25 10:53:30;;;;;;;0.80;0.80;;;31.60;39.00;;;;;;5101609;28;20471;-83
2022/05/25 10:56:02;;;;;;;0.80;0.80;;;31.50;38.80;;;;;;5102845;28;20539;-83
2022/05/25 10:58:44;;;;;;;0.70;0.70;;;31.80;38.20;;;;;;5101403;28;20439;-82
2022/05/25 11:01:20;;;;;;;1.70;0.90;;;31.90;38.20;;;;;;5100842;28;20453;-83
2022/05/25 11:04:14;;;;;;;1.00;0.80;;;31.90;39.00;;;;;;5102299;28;20452;-83
2022/05/25 11:06:48;;;;;;;0.90;0.80;;;32.30;38.10;;;;;;5102927;28;20437;-83
2022/05/25 11:09:24;;;;;;;0.90;0.80;;;32.80;37.60;;;;;;5102995;28;20460;-83
2022/05/25 11:11:57;;;;;;;2.07;0.80;;;32.80;37.20;;;;;;5102365;28;20483;-83
2022/05/25 11:14:37;;;;;;;3.80;0.93;;;33.10;37.00;;;;;;5118285;28;20420;-83
2022/05/25 11:17:08;;;;;;;1.03;0.70;;;33.70;36.60;;;;;;5127359;28;20458;-83
2022/05/25 11:19:58;;;;;;;0.90;0.70;;;34.00;35.80;;;;;;5127393;28;20455;-83
2022/05/25 11:22:39;;;;;;;0.80;0.80;;;34.50;35.00;;;;;;5126205;28;20439;-83
2022/05/25 11:25:37;;;;;;;0.80;0.80;;;34.30;34.80;;;;;;5126581;28;20511;-83
2022/05/25 11:28:16;;;;;;;1.47;1.10;;;34.80;34.40;;;;;;5118947;28;20471;-83
2022/05/25 11:30:53;;;;;;;0.90;0.80;;;34.60;34.70;;;;;;5115962;28;20462;-82
2022/05/25 11:33:40;;;;;;;0.90;0.80;;;35.10;34.40;;;;;;5106960;28;20468;-82
2022/05/25 11:36:37;;;;;;;2.40;1.07;;;35.60;33.10;;;;;;5106790;28;20433;-83
2022/05/25 11:39:09;;;;;;;1.87;0.93;;;36.30;32.70;;;;;;5106644;28;20420;-83
2022/05/25 11:41:40;;;;;;;0.73;0.73;;;36.90;32.10;;;;;;5105809;28;20482;-82
2022/05/25 11:44:29;;;;;;;0.80;0.80;;;37.40;31.10;;;;;;5105881;28;20413;-83
2022/05/25 11:46:58;;;;;;;0.80;0.73;;;37.00;30.30;;;;;;5113561;28;20476;-83
2022/05/25 11:49:55;;;;;;;0.70;0.70;;;36.70;31.00;;;;;;5125832;28;20499;-82
2022/05/25 11:52:46;;;;;;;0.80;0.70;;;37.10;30.80;;;;;;5124633;28;20468;-83
2022/05/25 11:55:20;;;;;;;0.70;0.70;;;36.90;30.40;;;;;;5109643;28;20522;-83
2022/05/25 11:57:54;;;;;;;0.90;0.90;;;37.00;30.20;;;;;;5125728;28;20484;-82
2022/05/25 12:00:31;;;;;;;0.93;0.83;;;36.50;30.40;;;;;;5125532;28;20485;-83
2022/05/25 12:03:32;;;;;;;0.90;0.90;;;36.30;31.00;;;;;;5115825;27;20476;-83
2022/05/25 12:06:06;;;;;;;1.13;0.70;;;37.00;30.90;;;;;;5105919;28;20507;-83
2022/05/25 12:08:48;;;;;;;1.33;0.80;;;37.40;29.70;;;;;;5106684;28;20432;-83
2022/05/25 12:11:19;;;;;;;1.07;0.80;;;37.90;29.40;;;;;;5105374;28;20468;-83
2022/05/25 12:13:49;;;;;;;0.70;0.70;;;37.90;28.90;;;;;;5104505;28;20503;-83
2022/05/25 12:16:20;;;;;;;0.70;0.60;;;37.40;29.30;;;;;;5105707;28;20512;-83
2022/05/25 12:18:53;;;;;;;0.60;0.60;;;37.10;29.60;;;;;;5105945;28;20531;-83
2022/05/25 12:21:24;;;;;;;1.27;0.80;;;37.40;29.60;;;;;;5111748;28;20464;-83
2022/05/25 12:23:53;;;;;;;0.80;0.80;;;36.40;29.60;;;;;;5123996;28;20929;-83
2022/05/25 12:26:23;;;;;;;0.77;0.77;;;36.40;31.20;;;;;;5125587;28;20507;-83
2022/05/25 12:28:51;;;;;;;0.70;0.70;;;37.00;30.80;;;;;;5125751;28;20499;-83
2022/05/25 12:31:21;;;;;;;0.77;0.63;;;36.80;30.00;;;;;;5125092;28;20476;-83
2022/05/25 12:33:49;;;;;;;0.60;0.60;;;36.30;30.20;;;;;;5124857;28;20476;-83
2022/05/25 12:36:17;;;;;;;0.70;0.70;;;36.10;30.40;;;;;;5119052;28;20547;-80
2022/05/25 12:38:46;;;;;;;1.73;0.77;;;35.40;31.10;;;;;;5115011;28;20462;-82
2022/05/25 12:41:38;;;;;;;0.80;0.80;;;34.80;31.70;;;;;;5109227;28;20463;-82
2022/05/25 12:49:45;;;;;;;0.70;0.70;;;33.40;33.40;;;;;;5102144;28;20649;-83
2022/05/25 12:52:41;;;;;;;0.70;0.70;;;33.00;33.90;;;;;;5101956;28;20457;-82
2022/05/25 12:55:34;;;;;;;0.80;0.80;;;32.70;34.20;;;;;;5102436;27;20463;-83
2022/05/25 12:58:02;;;;;;;0.90;0.80;;;32.50;34.60;;;;;;5101480;28;20536;-82
2022/05/25 13:00:41;;;;;;;1.87;0.70;;;32.30;34.60;;;;;;5100914;28;20489;-82
2022/05/25 13:03:22;;;;;;;1.07;0.90;;;32.20;35.10;;;;;;5100273;28;20532;-83
2022/05/25 13:05:59;;;;;;;0.90;0.70;;;32.00;35.30;;;;;;5101108;28;20496;-83
2022/05/25 13:09:07;;;;;;;1.07;0.70;;;31.80;35.40;;;;;;5100439;28;20462;-82
2022/05/25 13:11:41;;;;;;;0.70;0.70;;;31.70;35.60;;;;;;5100249;28;20453;-82
2022/05/25 13:14:38;;;;;;;0.73;0.73;;;31.50;35.60;;;;;;5102346;28;20536;-82
2022/05/25 13:17:06;;;;;;;0.60;0.60;;;31.40;35.60;;;;;;5091157;28;20460;-82
2022/05/25 13:19:41;;;;;;;0.90;0.90;;;31.30;35.20;;;;;;5099988;28;20475;-82
2022/05/25 13:22:24;;;;;;;0.80;0.80;;;31.30;35.40;;;;;;5100124;28;20488;-83
2022/05/25 13:25:14;;;;;;;1.53;0.80;;;31.50;35.40;;;;;;5101022;28;20504;-83
2022/05/25 13:28:18;;;;;;;0.70;0.70;;;31.80;35.10;;;;;;5100523;28;20965;-82
2022/05/25 13:30:52;;;;;;;0.70;0.70;;;32.00;34.80;;;;;;5115476;28;20493;-82
2022/05/25 13:33:24;;;;;;;1.83;0.60;;;31.90;34.60;;;;;;5120413;28;20582;-82
2022/05/25 13:35:56;;;;;;;2.30;0.70;;;31.70;34.30;;;;;;5120115;28;20519;-82
2022/05/25 13:38:34;;;;;;;0.90;0.80;;;31.50;34.50;;;;;;5119249;28;20467;-82
2022/05/25 13:41:12;;;;;;;0.70;0.70;;;31.30;34.60;;;;;;5120607;28;20554;-83
2022/05/25 13:43:50;;;;;;;0.70;0.70;;;31.30;34.70;;;;;;5120344;28;20503;-83
2022/05/25 13:46:49;;;;;;;0.70;0.70;;;31.10;34.80;;;;;;5107218;28;20463;-82